createdAt,value
2019-03-17T00:01:30.068Z,9.70
2019-03-17T00:04:01.251Z,9.70
2019-03-17T00:06:32.472Z,9.70
2019-03-17T00:09:03.912Z,9.70
2019-03-17T00:11:35.163Z,9.70
2019-03-17T00:14:06.212Z,9.60
2019-03-17T00:16:37.568Z,9.50
2019-03-17T00:19:08.644Z,9.60
2019-03-17T00:21:39.718Z,9.50
2019-03-17T00:24:10.846Z,9.50
2019-03-17T00:26:41.904Z,9.40
2019-03-17T00:29:13.077Z,9.30
2019-03-17T00:31:45.185Z,9.20
2019-03-17T00:34:16.271Z,9.20
2019-03-17T00:36:47.378Z,9.30
2019-03-17T00:39:18.534Z,9.20
2019-03-17T00:41:49.572Z,9.10
2019-03-17T00:44:20.742Z,9.10
2019-03-17T00:46:51.802Z,8.90
2019-03-17T00:49:22.880Z,8.90
2019-03-17T00:52:12.964Z,8.80
2019-03-17T00:54:44.192Z,8.90
2019-03-17T00:57:15.270Z,8.90
2019-03-17T00:59:46.342Z,8.90
2019-03-17T01:02:17.402Z,8.70
2019-03-17T01:04:56.097Z,8.70
2019-03-17T01:07:21.408Z,8.60
2019-03-17T01:09:52.794Z,8.70
2019-03-17T01:12:23.875Z,8.60
2019-03-17T01:14:54.945Z,8.60
2019-03-17T01:17:26.012Z,8.50
2019-03-17T01:19:57.084Z,8.50
2019-03-17T01:22:28.186Z,8.50
2019-03-17T01:24:59.717Z,8.40
2019-03-17T01:27:30.893Z,8.40
2019-03-17T01:30:01.937Z,8.40
2019-03-17T01:32:34.089Z,8.30
2019-03-17T01:35:09.611Z,8.30
2019-03-17T01:37:38.773Z,8.30
2019-03-17T01:40:09.878Z,8.40
2019-03-17T01:42:40.929Z,8.30
2019-03-17T01:45:12.032Z,8.20
2019-03-17T01:47:43.066Z,8.20
2019-03-17T01:50:14.112Z,8.10
2019-03-17T01:52:45.358Z,8.10
2019-03-17T01:55:16.438Z,8.10
2019-03-17T01:57:47.530Z,8.10
2019-03-17T02:00:18.560Z,8.00
2019-03-17T02:02:49.704Z,8.00
2019-03-17T02:05:22.300Z,8.00
2019-03-17T02:07:53.728Z,8.00
2019-03-17T02:10:25.150Z,8.00
2019-03-17T02:12:56.296Z,8.00
2019-03-17T02:15:27.724Z,8.00
2019-03-17T02:17:58.792Z,8.00
2019-03-17T02:20:29.814Z,8.10
2019-03-17T02:23:01.060Z,8.10
2019-03-17T02:25:32.140Z,8.10
2019-03-17T02:28:03.216Z,8.00
2019-03-17T02:30:34.409Z,8.00
2019-03-17T02:33:05.586Z,7.90
2019-03-17T02:35:40.041Z,7.90
2019-03-17T02:38:10.528Z,7.90
2019-03-17T02:40:41.641Z,7.90
2019-03-17T02:43:13.907Z,7.90
2019-03-17T02:45:44.958Z,7.80
2019-03-17T02:48:16.044Z,7.70
2019-03-17T02:50:47.068Z,7.70
2019-03-17T02:53:18.127Z,7.80
2019-03-17T02:55:49.275Z,7.70
2019-03-17T02:58:20.330Z,7.60
2019-03-17T03:00:51.430Z,7.60
2019-03-17T03:03:22.451Z,7.60
2019-03-17T03:05:55.530Z,7.40
2019-03-17T03:08:26.279Z,7.30
2019-03-17T03:10:57.998Z,7.50
2019-03-17T03:13:29.174Z,7.30
2019-03-17T03:16:00.255Z,7.30
2019-03-17T03:18:31.720Z,7.40
2019-03-17T03:21:04.286Z,7.50
2019-03-17T03:23:35.311Z,7.50
2019-03-17T03:26:06.557Z,7.50
2019-03-17T03:28:37.665Z,7.40
2019-03-17T03:31:08.797Z,7.40
2019-03-17T03:33:39.909Z,7.30
2019-03-17T03:36:12.085Z,7.20
2019-03-17T03:38:43.287Z,7.20
2019-03-17T03:41:14.345Z,7.20
2019-03-17T03:43:45.421Z,7.10
2019-03-17T03:46:16.498Z,7.00
2019-03-17T03:48:48.616Z,7.00
2019-03-17T03:51:19.722Z,7.00
2019-03-17T03:53:50.775Z,7.00
2019-03-17T03:56:21.854Z,7.00
2019-03-17T03:58:52.877Z,7.10
2019-03-17T04:01:23.954Z,7.00
2019-03-17T04:03:55.403Z,7.00
2019-03-17T04:06:27.223Z,7.00
2019-03-17T04:08:58.508Z,7.00
2019-03-17T04:11:30.065Z,7.00
2019-03-17T04:14:01.119Z,7.10
2019-03-17T04:16:32.273Z,7.00
2019-03-17T04:19:03.324Z,7.10
2019-03-17T04:21:34.352Z,7.00
2019-03-17T04:24:05.523Z,7.10
2019-03-17T04:26:36.572Z,7.00
2019-03-17T04:29:07.606Z,7.00
2019-03-17T04:31:38.737Z,6.90
2019-03-17T04:34:09.792Z,6.90
2019-03-17T04:36:40.949Z,6.90
2019-03-17T04:39:12.034Z,6.90
2019-03-17T04:41:43.105Z,7.10
2019-03-17T04:44:20.725Z,7.10
2019-03-17T04:46:47.033Z,7.00
2019-03-17T04:49:18.182Z,7.10
2019-03-17T04:51:49.241Z,7.00
2019-03-17T04:54:20.314Z,6.90
2019-03-17T04:56:51.351Z,6.80
2019-03-17T04:59:22.642Z,6.80
2019-03-17T05:01:53.766Z,6.70
2019-03-17T05:04:24.953Z,6.70
2019-03-17T05:06:56.012Z,6.60
2019-03-17T05:09:27.371Z,6.60
2019-03-17T05:11:58.987Z,6.40
2019-03-17T05:14:30.338Z,6.40
2019-03-17T05:17:01.424Z,6.50
2019-03-17T05:19:34.108Z,6.60
2019-03-17T05:22:05.531Z,6.70
2019-03-17T05:24:36.740Z,6.60
2019-03-17T05:27:08.085Z,6.50
2019-03-17T05:29:50.796Z,6.60
2019-03-17T05:32:22.214Z,6.60
2019-03-17T05:34:53.266Z,6.60
2019-03-17T05:37:24.530Z,6.60
2019-03-17T05:39:55.582Z,6.50
2019-03-17T05:42:26.726Z,6.60
2019-03-17T05:44:58.024Z,6.60
2019-03-17T05:47:29.268Z,6.50
2019-03-17T05:50:00.463Z,6.50
2019-03-17T05:52:32.042Z,6.60
2019-03-17T05:55:03.078Z,6.70
2019-03-17T05:57:34.456Z,6.70
2019-03-17T06:00:06.564Z,6.80
2019-03-17T06:02:37.966Z,6.80
2019-03-17T06:05:10.481Z,6.80
2019-03-17T06:07:41.728Z,6.80
2019-03-17T06:10:12.937Z,6.80
2019-03-17T06:12:44.488Z,6.80
2019-03-17T06:15:15.617Z,6.80
2019-03-17T06:17:47.197Z,6.90
2019-03-17T06:20:18.372Z,6.90
2019-03-17T06:22:49.698Z,6.90
2019-03-17T06:25:20.889Z,7.00
2019-03-17T06:27:52.075Z,7.00
2019-03-17T06:30:23.340Z,7.10
2019-03-17T06:32:54.579Z,7.10
2019-03-17T06:35:25.713Z,7.00
2019-03-17T06:37:57.107Z,7.10
2019-03-17T06:40:28.450Z,7.10
2019-03-17T06:42:59.736Z,7.20
2019-03-17T06:45:31.018Z,7.30
2019-03-17T06:48:02.124Z,7.40
2019-03-17T06:50:33.264Z,7.60
2019-03-17T06:53:04.398Z,7.70
2019-03-17T06:55:35.612Z,7.60
2019-03-17T06:58:06.776Z,7.80
2019-03-17T07:00:37.948Z,7.80
2019-03-17T07:03:08.980Z,7.90
2019-03-17T07:05:40.039Z,8.10
2019-03-17T07:08:11.084Z,8.20
2019-03-17T07:10:42.148Z,8.30
2019-03-17T07:13:13.314Z,8.30
2019-03-17T07:15:44.712Z,8.30
2019-03-17T07:18:15.773Z,8.50
2019-03-17T07:20:46.981Z,8.50
2019-03-17T07:23:18.078Z,8.50
2019-03-17T07:25:49.158Z,8.70
2019-03-17T07:28:21.224Z,8.70
2019-03-17T07:30:52.286Z,8.80
2019-03-17T07:33:23.365Z,8.90
2019-03-17T07:35:54.391Z,9.10
2019-03-17T07:38:25.548Z,8.90
2019-03-17T07:40:56.840Z,9.10
2019-03-17T07:43:27.903Z,9.10
2019-03-17T07:45:58.962Z,9.40
2019-03-17T07:48:30.032Z,9.40
2019-03-17T07:51:01.197Z,9.30
2019-03-17T07:53:32.518Z,9.40
2019-03-17T07:56:03.672Z,9.50
2019-03-17T07:58:34.810Z,9.50
2019-03-17T08:01:05.892Z,9.60
2019-03-17T08:03:37.001Z,9.70
2019-03-17T08:06:08.054Z,9.60
2019-03-17T08:08:39.143Z,9.70
2019-03-17T08:11:10.262Z,9.90
2019-03-17T08:13:41.673Z,9.90
2019-03-17T08:16:12.766Z,10.10
2019-03-17T08:18:43.834Z,10.20
2019-03-17T08:21:14.968Z,10.40
2019-03-17T08:23:46.142Z,10.40
2019-03-17T08:26:17.224Z,10.20
2019-03-17T08:28:48.264Z,10.30
2019-03-17T08:31:19.423Z,10.40
2019-03-17T08:33:50.775Z,10.50
2019-03-17T08:36:21.970Z,10.80
2019-03-17T08:38:53.032Z,10.80
2019-03-17T08:41:24.084Z,10.90
2019-03-17T08:43:55.162Z,10.90
2019-03-17T08:46:26.216Z,11.20
2019-03-17T08:48:57.287Z,11.10
2019-03-17T08:51:28.435Z,11.00
2019-03-17T08:53:59.914Z,11.00
2019-03-17T08:56:31.165Z,10.80
2019-03-17T08:59:02.222Z,10.80
2019-03-17T09:01:33.388Z,10.90
2019-03-17T09:04:04.464Z,11.30
2019-03-17T09:06:35.593Z,11.40
2019-03-17T09:09:08.463Z,11.70
2019-03-17T09:11:39.625Z,11.80
2019-03-17T09:14:10.890Z,12.00
2019-03-17T09:16:41.962Z,11.90
2019-03-17T09:19:13.027Z,12.10
2019-03-17T09:21:44.104Z,12.00
2019-03-17T09:24:17.529Z,12.10
2019-03-17T09:26:47.964Z,11.90
2019-03-17T09:29:19.036Z,11.90
2019-03-17T09:31:50.085Z,12.00
2019-03-17T09:34:21.220Z,11.90
2019-03-17T09:36:52.690Z,11.60
2019-03-17T09:39:23.750Z,11.60
2019-03-17T09:41:54.846Z,11.70
2019-03-17T09:44:26.060Z,11.80
2019-03-17T09:46:57.102Z,11.90
2019-03-17T09:49:28.359Z,11.90
2019-03-17T09:51:59.416Z,11.90
2019-03-17T09:54:30.559Z,11.90
2019-03-17T09:57:01.741Z,12.00
2019-03-17T09:59:32.844Z,12.10
2019-03-17T10:02:04.111Z,12.10
2019-03-17T10:04:35.206Z,12.20
2019-03-17T10:07:06.538Z,12.30
2019-03-17T10:09:37.755Z,12.30
2019-03-17T10:12:08.890Z,12.20
2019-03-17T10:14:40.312Z,12.20
2019-03-17T10:17:11.436Z,12.30
2019-03-17T10:19:42.559Z,12.60
2019-03-17T10:22:13.619Z,12.70
2019-03-17T10:24:44.703Z,12.70
2019-03-17T10:27:15.750Z,12.50
2019-03-17T10:29:46.992Z,12.50
2019-03-17T10:32:18.102Z,12.50
2019-03-17T10:34:49.148Z,12.40
2019-03-17T10:37:20.240Z,12.60
2019-03-17T10:39:51.866Z,12.80
2019-03-17T10:42:23.038Z,12.90
2019-03-17T10:44:54.145Z,12.90
2019-03-17T10:47:25.173Z,12.90
2019-03-17T10:49:56.420Z,12.90
2019-03-17T10:52:27.582Z,12.90
2019-03-17T10:54:58.636Z,12.90
2019-03-17T10:57:30.081Z,13.00
2019-03-17T11:00:01.247Z,13.10
2019-03-17T11:02:32.722Z,13.10
2019-03-17T11:05:03.920Z,13.20
2019-03-17T11:07:46.654Z,13.30
2019-03-17T11:10:17.726Z,13.40
2019-03-17T11:12:48.890Z,13.70
2019-03-17T11:15:20.156Z,13.80
2019-03-17T11:17:51.256Z,13.90
2019-03-17T11:20:22.308Z,14.00
2019-03-17T11:22:53.710Z,14.10
2019-03-17T11:25:24.792Z,14.10
2019-03-17T11:27:55.835Z,14.20
2019-03-17T11:30:26.946Z,14.10
2019-03-17T11:32:58.011Z,14.20
2019-03-17T11:35:29.556Z,14.20
2019-03-17T11:38:00.664Z,14.10
2019-03-17T11:40:31.749Z,14.40
2019-03-17T11:43:02.854Z,14.50
2019-03-17T11:45:33.920Z,14.50
2019-03-17T11:48:04.988Z,14.40
2019-03-17T11:50:36.100Z,14.50
2019-03-17T11:53:07.247Z,14.40
2019-03-17T11:55:38.389Z,14.60
2019-03-17T11:58:09.442Z,14.70
2019-03-17T12:00:40.506Z,14.60
2019-03-17T12:03:11.581Z,14.50
2019-03-17T12:05:42.663Z,14.50
2019-03-17T12:08:14.091Z,14.60
2019-03-17T12:10:45.172Z,14.60
2019-03-17T12:13:16.279Z,14.60
2019-03-17T12:15:47.654Z,14.70
2019-03-17T12:18:18.698Z,14.90
2019-03-17T12:20:49.759Z,15.00
2019-03-17T12:23:20.896Z,15.00
2019-03-17T12:25:51.949Z,15.10
2019-03-17T12:28:23.868Z,15.30
2019-03-17T12:30:55.094Z,15.20
2019-03-17T12:33:26.136Z,15.20
2019-03-17T12:35:57.268Z,15.10
2019-03-17T12:38:28.375Z,15.20
2019-03-17T12:41:00.540Z,15.40
2019-03-17T12:43:31.646Z,15.40
2019-03-17T12:46:02.955Z,15.60
2019-03-17T12:48:34.074Z,15.50
2019-03-17T12:51:05.548Z,15.30
2019-03-17T12:53:36.684Z,15.40
2019-03-17T12:56:07.793Z,15.60
2019-03-17T12:58:38.956Z,15.70
2019-03-17T13:01:10.168Z,15.60
2019-03-17T13:03:41.376Z,15.60
2019-03-17T13:06:12.464Z,15.70
2019-03-17T13:08:43.494Z,15.80
2019-03-17T13:11:14.624Z,15.70
2019-03-17T13:13:57.662Z,15.60
2019-03-17T13:16:28.960Z,15.60
2019-03-17T13:19:19.367Z,15.50
2019-03-17T13:21:50.638Z,15.60
2019-03-17T13:24:21.705Z,15.60
2019-03-17T13:26:54.077Z,15.60
2019-03-17T13:29:44.315Z,15.50
2019-03-17T13:32:27.121Z,15.60
2019-03-17T13:34:58.222Z,15.60
2019-03-17T13:37:29.593Z,15.60
2019-03-17T13:40:00.848Z,15.40
2019-03-17T13:42:33.891Z,15.20
2019-03-17T13:45:05.988Z,15.20
2019-03-17T13:47:37.558Z,15.10
2019-03-17T13:50:11.379Z,15.00
2019-03-17T13:52:43.840Z,15.10
2019-03-17T13:55:17.032Z,14.90
2019-03-17T13:57:49.832Z,14.90
2019-03-17T14:00:22.007Z,14.90
2019-03-17T14:02:54.400Z,15.00
2019-03-17T14:05:26.591Z,15.10
2019-03-17T14:07:58.744Z,15.30
2019-03-17T14:10:40.384Z,15.50
2019-03-17T14:13:03.732Z,15.50
2019-03-17T14:15:35.221Z,15.00
2019-03-17T14:18:07.248Z,14.50
2019-03-17T14:20:39.126Z,14.20
2019-03-17T14:23:10.629Z,13.80
2019-03-17T14:25:44.030Z,13.50
2019-03-17T14:28:15.711Z,13.30
2019-03-17T14:30:47.204Z,13.30
2019-03-17T14:33:18.690Z,12.80
2019-03-17T14:35:50.447Z,12.80
2019-03-17T14:38:22.690Z,12.60
2019-03-17T14:40:57.127Z,12.50
2019-03-17T14:43:27.326Z,11.70
2019-03-17T14:45:58.576Z,10.60
2019-03-17T14:48:30.190Z,10.20
2019-03-17T14:51:01.485Z,9.60
2019-03-17T14:53:34.238Z,8.70
2019-03-17T14:56:05.912Z,8.50
2019-03-17T15:03:38.182Z,7.70
2019-03-17T15:06:09.832Z,7.50
2019-03-17T15:08:41.302Z,7.30
2019-03-17T15:11:12.715Z,7.20
2019-03-17T15:13:43.924Z,7.00
2019-03-17T15:16:15.168Z,6.70
2019-03-17T15:18:47.133Z,6.80
2019-03-17T15:21:18.708Z,6.40
2019-03-17T15:23:49.874Z,6.20
2019-03-17T15:26:21.092Z,6.00
2019-03-17T15:28:52.477Z,5.90
2019-03-17T15:33:54.375Z,5.70
2019-03-17T15:36:25.466Z,5.60
2019-03-17T15:38:56.508Z,5.40
2019-03-17T15:41:27.700Z,5.30
2019-03-17T15:43:58.802Z,5.10
2019-03-17T15:46:29.943Z,5.20
2019-03-17T15:49:01.098Z,5.30
2019-03-17T15:51:32.298Z,5.60
2019-03-17T15:54:03.364Z,5.60
2019-03-17T15:56:35.811Z,5.40
2019-03-17T15:59:06.872Z,5.40
2019-03-17T16:01:39.143Z,5.20
2019-03-17T16:04:10.332Z,5.30
2019-03-17T16:06:41.478Z,5.20
2019-03-17T16:09:12.509Z,5.20
2019-03-17T16:11:43.628Z,5.20
2019-03-17T16:14:14.722Z,5.10
2019-03-17T16:16:45.862Z,5.20
2019-03-17T16:19:17.285Z,5.10
2019-03-17T16:21:48.331Z,5.10
2019-03-17T16:24:19.428Z,5.20
2019-03-17T16:26:50.584Z,5.20
2019-03-17T16:29:22.804Z,5.20
2019-03-17T16:34:24.590Z,5.10
2019-03-17T16:36:55.807Z,5.10
2019-03-17T16:39:27.217Z,5.00
2019-03-17T16:41:58.352Z,5.10
2019-03-17T16:44:29.499Z,5.10
2019-03-17T16:47:00.617Z,5.00
2019-03-17T16:49:31.836Z,5.10
2019-03-17T16:52:02.966Z,5.10
2019-03-17T16:54:34.196Z,5.00
2019-03-17T16:57:05.333Z,5.00
2019-03-17T16:59:36.457Z,5.00
2019-03-17T17:02:07.655Z,5.00
2019-03-17T17:04:38.926Z,4.90
2019-03-17T17:07:10.080Z,4.70
2019-03-17T17:09:41.242Z,4.80
2019-03-17T17:12:12.327Z,4.90
2019-03-17T17:14:43.450Z,4.80
2019-03-17T17:17:14.598Z,4.80
2019-03-17T17:19:46.191Z,4.90
2019-03-17T17:22:17.378Z,4.80
2019-03-17T17:24:48.600Z,4.80
2019-03-17T17:27:20.704Z,4.80
2019-03-17T17:29:52.046Z,4.80
2019-03-17T17:32:23.153Z,4.80
2019-03-17T17:34:54.392Z,4.80
2019-03-17T17:37:25.478Z,5.00
2019-03-17T17:39:56.590Z,4.90
2019-03-17T17:42:27.680Z,4.80
2019-03-17T17:44:58.838Z,4.80
2019-03-17T17:47:29.948Z,4.90
2019-03-17T17:50:01.046Z,5.00
2019-03-17T17:52:32.193Z,5.00
2019-03-17T17:55:03.249Z,5.00
2019-03-17T17:57:34.430Z,5.00
2019-03-17T18:00:07.134Z,5.10
2019-03-17T18:02:39.252Z,5.00
2019-03-17T18:05:10.448Z,5.00
2019-03-17T18:07:41.546Z,5.00
2019-03-17T18:10:12.597Z,5.00
2019-03-17T18:12:43.718Z,4.90
2019-03-17T18:15:16.072Z,5.00
2019-03-17T18:17:47.114Z,5.00
2019-03-17T18:20:18.472Z,5.00
2019-03-17T18:22:49.524Z,5.00
2019-03-17T18:25:20.639Z,5.00
2019-03-17T18:27:51.800Z,5.10
2019-03-17T18:30:22.858Z,5.00
2019-03-17T18:32:54.026Z,5.00
2019-03-17T18:35:25.074Z,5.10
2019-03-17T18:37:56.242Z,5.10
2019-03-17T18:40:27.598Z,5.00
2019-03-17T18:42:58.746Z,4.90
2019-03-17T18:45:29.840Z,4.90
2019-03-17T18:48:01.107Z,4.90
2019-03-17T18:50:32.242Z,4.90
2019-03-17T18:53:04.512Z,4.80
2019-03-17T18:55:35.848Z,4.90
2019-03-17T18:58:07.167Z,4.90
2019-03-17T19:00:38.269Z,4.90
2019-03-17T19:03:09.500Z,4.90
2019-03-17T19:05:40.606Z,4.80
2019-03-17T19:08:11.751Z,4.90
2019-03-17T19:10:43.149Z,4.90
2019-03-17T19:13:14.384Z,4.90
2019-03-17T19:15:45.452Z,4.90
2019-03-17T19:18:16.578Z,4.90
2019-03-17T19:20:48.278Z,4.70
2019-03-17T19:23:19.318Z,4.70
2019-03-17T19:25:50.442Z,4.80
2019-03-17T19:28:21.644Z,4.80
2019-03-17T19:30:52.720Z,4.80
2019-03-17T19:33:23.877Z,4.70
2019-03-17T19:35:55.337Z,4.80
2019-03-17T19:38:27.048Z,4.80
2019-03-17T19:40:58.154Z,4.70
2019-03-17T19:43:29.192Z,4.70
2019-03-17T19:46:00.792Z,4.70
2019-03-17T19:48:32.029Z,4.70
2019-03-17T19:51:03.129Z,4.60
2019-03-17T19:53:34.200Z,4.60
2019-03-17T19:56:05.774Z,4.70
2019-03-17T19:58:36.856Z,4.60
2019-03-17T20:01:08.065Z,4.60
2019-03-17T20:03:40.225Z,4.50
2019-03-17T20:06:11.354Z,4.40
2019-03-17T20:08:42.547Z,4.30
2019-03-17T20:11:13.881Z,4.40
2019-03-17T20:13:44.974Z,4.40
2019-03-17T20:16:16.328Z,4.40
2019-03-17T20:18:47.733Z,4.10
2019-03-17T20:21:18.939Z,4.20
2019-03-17T20:23:50.188Z,4.20
2019-03-17T20:26:21.325Z,4.10
2019-03-17T20:28:52.400Z,4.00
2019-03-17T20:31:23.568Z,4.10
2019-03-17T20:33:54.854Z,4.10
2019-03-17T20:36:26.119Z,4.00
2019-03-17T20:38:57.542Z,4.00
2019-03-17T20:41:28.764Z,3.90
2019-03-17T20:44:00.077Z,3.80
2019-03-17T20:46:31.352Z,3.80
2019-03-17T20:49:02.642Z,3.80
2019-03-17T20:51:34.002Z,3.80
2019-03-17T20:54:05.082Z,3.70
2019-03-17T20:56:36.732Z,3.80
2019-03-17T20:59:07.810Z,3.90
2019-03-17T21:01:38.970Z,3.90
2019-03-17T21:04:10.155Z,3.80
2019-03-17T21:06:41.252Z,3.80
2019-03-17T21:09:12.434Z,3.80
2019-03-17T21:11:43.601Z,3.80
2019-03-17T21:14:15.449Z,3.70
2019-03-17T21:16:46.564Z,3.80
2019-03-17T21:19:17.752Z,3.60
2019-03-17T21:21:48.948Z,3.70
2019-03-17T21:24:20.179Z,3.60
2019-03-17T21:26:51.576Z,3.60
2019-03-17T21:29:22.702Z,3.70
2019-03-17T21:31:54.027Z,3.60
2019-03-17T21:34:25.182Z,3.60
2019-03-17T21:36:56.316Z,3.70
2019-03-17T21:39:27.463Z,3.60
2019-03-17T21:41:58.666Z,3.60
2019-03-17T21:44:29.858Z,3.60
2019-03-17T21:47:00.978Z,3.70
2019-03-17T21:49:33.364Z,3.70
2019-03-17T21:52:04.700Z,3.60
2019-03-17T21:54:36.131Z,3.70
2019-03-17T21:57:07.690Z,3.70
2019-03-17T21:59:38.885Z,3.70
2019-03-17T22:02:13.051Z,3.60
2019-03-17T22:04:42.848Z,3.60
2019-03-17T22:07:14.142Z,3.70
2019-03-17T22:09:46.390Z,3.70
2019-03-17T22:12:17.685Z,3.70
2019-03-17T22:14:48.824Z,3.60
2019-03-17T22:17:19.952Z,3.60
2019-03-17T22:19:51.104Z,3.50
2019-03-17T22:22:22.182Z,3.50
2019-03-17T22:24:53.401Z,3.50
2019-03-17T22:27:25.693Z,3.50
2019-03-17T22:29:56.800Z,3.40
2019-03-17T22:32:27.864Z,3.50
2019-03-17T22:34:59.038Z,3.60
2019-03-17T22:37:30.248Z,3.60
2019-03-17T22:40:01.426Z,3.70
2019-03-17T22:42:32.544Z,3.60
2019-03-17T22:45:03.788Z,3.60
2019-03-17T22:47:34.864Z,3.60
2019-03-17T22:50:06.840Z,3.50
2019-03-17T22:52:37.936Z,3.40
2019-03-17T22:55:09.170Z,3.40
2019-03-17T22:57:40.581Z,3.30
2019-03-17T23:00:15.093Z,3.30
2019-03-17T23:02:47.856Z,3.30
2019-03-17T23:05:18.944Z,3.20
2019-03-17T23:07:50.059Z,3.20
2019-03-17T23:10:21.170Z,3.10
2019-03-17T23:12:52.322Z,3.20
2019-03-17T23:15:23.388Z,3.10
2019-03-17T23:17:54.536Z,3.10
2019-03-17T23:20:25.674Z,3.10
2019-03-17T23:22:56.712Z,3.00
2019-03-17T23:25:27.966Z,3.10
2019-03-17T23:27:59.088Z,3.10
2019-03-17T23:30:30.307Z,3.10
2019-03-17T23:33:01.458Z,3.20
2019-03-17T23:35:32.553Z,3.20
2019-03-17T23:38:03.855Z,3.30
2019-03-17T23:40:34.981Z,3.30
2019-03-17T23:43:06.098Z,3.30
2019-03-17T23:45:37.144Z,3.20
2019-03-17T23:48:08.312Z,3.20
2019-03-17T23:50:39.590Z,3.10
2019-03-17T23:53:10.753Z,3.10
2019-03-17T23:55:42.017Z,3.10
2019-03-17T23:58:13.318Z,3.10
